DLH650 EDDF-UAAA
Flight info
| Callsign | DLH650 |
|---|---|
| Flight time | N/A |
| Altitude | 31000 |
| Route | SULUS3D SULUS Z650 VEMUT/N0468F370 DCT PEPIK DCT ERGOM DCT TEGRI DCT EKSUN DCT RIVOS DCT DINRO N743 UDROS UM859 BAMUP/N0462F390 UM859 KARDE UN644 ROLIN DCT LAGAS M747 LUSAL N199 RASAM L88 METKA B476 TIMGA A480 OTBOR/K0876F390 N147 PIDWO Y720 LAPZE Z640 GILAT N102 SMK N143 TAR Z817 AGLEK Z370 EKLAT |
| Aircraft | A343/H-SDE2E3FGHIJ4J5M1RWXY/LB1D1 |
Departure
| Time | 2026-04-17 10:31 |
|---|---|
| Airport | Frankfurt Main Airport (EDDF) |
Arrival
| Time | N/A |
|---|---|
| Airport | Almaty International Airport (UAAA) |
| Time | Latitude | Longitude | Altitude | Speed | Heading |
|---|---|---|---|---|---|
| 2026-04-17 10:16 | 50.04710 | 8.57287 | 360 ft | 0 kts | 276° |
| 2026-04-17 10:19 | 50.04710 | 8.57288 | 360 ft | 1 kts | 276° |
| 2026-04-17 10:19 | 50.04708 | 8.57311 | 367 ft | 3 kts | 282° |
| 2026-04-17 10:19 | 50.04703 | 8.57341 | 360 ft | 3 kts | 292° |
| 2026-04-17 10:20 | 50.04694 | 8.57369 | 369 ft | 3 kts | 304° |
| 2026-04-17 10:20 | 50.04682 | 8.57394 | 365 ft | 3 kts | 315° |
| 2026-04-17 10:20 | 50.04667 | 8.57415 | 369 ft | 3 kts | 323° |
| 2026-04-17 10:20 | 50.04651 | 8.57434 | 366 ft | 3 kts | 317° |
| 2026-04-17 10:21 | 50.04637 | 8.57455 | 367 ft | 3 kts | 309° |
| 2026-04-17 10:21 | 50.04625 | 8.57481 | 367 ft | 3 kts | 296° |
| 2026-04-17 10:21 | 50.04618 | 8.57509 | 364 ft | 3 kts | 280° |
| 2026-04-17 10:21 | 50.04616 | 8.57540 | 362 ft | 3 kts | 262° |
| 2026-04-17 10:22 | 50.04621 | 8.57570 | 364 ft | 3 kts | 245° |
| 2026-04-17 10:22 | 50.04630 | 8.57597 | 367 ft | 3 kts | 236° |
| 2026-04-17 10:22 | 50.04641 | 8.57623 | 366 ft | 2 kts | 243° |
| 2026-04-17 10:22 | 50.04644 | 8.57633 | 369 ft | 0 kts | 250° |
| 2026-04-17 10:24 | 50.04641 | 8.57621 | 369 ft | 5 kts | 249° |
| 2026-04-17 10:25 | 50.04613 | 8.57503 | 369 ft | 18 kts | 249° |
| 2026-04-17 10:25 | 50.04555 | 8.57267 | 369 ft | 26 kts | 249° |
| 2026-04-17 10:25 | 50.04485 | 8.56974 | 366 ft | 34 kts | 249° |
| 2026-04-17 10:25 | 50.04395 | 8.56592 | 368 ft | 39 kts | 250° |
| 2026-04-17 10:26 | 50.04303 | 8.56205 | 368 ft | 34 kts | 249° |
| 2026-04-17 10:26 | 50.04221 | 8.55864 | 364 ft | 33 kts | 249° |
| 2026-04-17 10:26 | 50.04137 | 8.55503 | 361 ft | 42 kts | 251° |
| 2026-04-17 10:26 | 50.04057 | 8.55173 | 364 ft | 28 kts | 249° |
| 2026-04-17 10:27 | 50.03975 | 8.54833 | 362 ft | 40 kts | 249° |
| 2026-04-17 10:27 | 50.03873 | 8.54415 | 358 ft | 39 kts | 248° |
| 2026-04-17 10:27 | 50.03758 | 8.54052 | 355 ft | 37 kts | 251° |
| 2026-04-17 10:27 | 50.03688 | 8.53752 | 357 ft | 26 kts | 249° |
| 2026-04-17 10:28 | 50.03617 | 8.53495 | 355 ft | 25 kts | 246° |
| 2026-04-17 10:28 | 50.03553 | 8.53208 | 344 ft | 34 kts | 249° |
| 2026-04-17 10:28 | 50.03470 | 8.52863 | 336 ft | 32 kts | 249° |
| 2026-04-17 10:28 | 50.03385 | 8.52609 | 337 ft | 24 kts | 210° |
| 2026-04-17 10:29 | 50.03334 | 8.52597 | 337 ft | 0 kts | 180° |
| 2026-04-17 10:29 | 50.03332 | 8.52597 | 337 ft | 1 kts | 180° |
| 2026-04-17 10:30 | 50.03176 | 8.52597 | 339 ft | 50 kts | 180° |
| 2026-04-17 10:30 | 50.02651 | 8.52600 | 336 ft | 99 kts | 180° |
| 2026-04-17 10:30 | 50.01815 | 8.52608 | 334 ft | 140 kts | 180° |
| 2026-04-17 10:30 | 50.00751 | 8.52619 | 568 ft | 152 kts | 180° |
| 2026-04-17 10:31 | 49.99794 | 8.52674 | 1318 ft | 131 kts | 178° |
| 2026-04-17 10:31 | 49.98811 | 8.52703 | 1519 ft | 153 kts | 180° |
| 2026-04-17 10:31 | 49.97671 | 8.52730 | 1795 ft | 174 kts | 174° |
| 2026-04-17 10:31 | 49.96495 | 8.53458 | 2069 ft | 196 kts | 140° |
| 2026-04-17 10:32 | 49.95623 | 8.55234 | 2359 ft | 221 kts | 121° |
| 2026-04-17 10:32 | 49.94866 | 8.57361 | 2926 ft | 233 kts | 120° |
| 2026-04-17 10:32 | 49.94197 | 8.59684 | 3675 ft | 240 kts | 106° |
| 2026-04-17 10:32 | 49.93935 | 8.62313 | 4293 ft | 254 kts | 95° |
| 2026-04-17 10:33 | 49.93833 | 8.65096 | 5007 ft | 262 kts | 94° |
| 2026-04-17 10:33 | 49.93630 | 8.67931 | 5791 ft | 266 kts | 107° |